CDT,Max TemperatureF,Mean TemperatureF,Min TemperatureF,Max Dew PointF,MeanDew PointF,Min DewpointF,Max Humidity, Mean Humidity, Min Humidity, Max Sea Level PressureIn, Mean Sea Level PressureIn, Min Sea Level PressureIn, Max VisibilityMiles, Mean VisibilityMiles, Min VisibilityMiles, Max Wind SpeedMPH, Mean Wind SpeedMPH, Max Gust SpeedMPH,PrecipitationIn, CloudCover, Events, WindDirDegrees
2012-10-1,68,56,44,41,34,23,66,45,24,30.10,30.02,29.92,10,10,5,17,10,38,0.00,1,,302
2012-10-2,75,56,37,45,34,27,70,45,21,29.90,29.72,29.59,10,10,5,37,13,44,0.00,0,,217
2012-10-3,53,46,39,45,39,32,100,79,58,30.09,29.97,29.77,10,8,2,28,12,33,0.00,4,Rain,347
2012-10-4,37,34,32,36,33,30,100,93,81,30.15,30.07,30.00,10,5,0,31,24,46,0.00,7,Rain-Snow,334
2012-10-5,35,34,32,32,31,28,100,94,87,30.32,30.20,30.12,10,6,1,25,19,32,0.00,7,Rain-Snow,328
2012-10-6,46,37,28,32,28,27,100,77,46,30.36,30.27,30.08,10,10,10,15,10,21,0.00,1,,278
2012-10-7,53,42,32,37,31,25,93,68,44,30.07,29.86,29.72,10,10,10,15,9,20,0.00,4,,253
2012-10-8,48,42,37,45,38,34,100,90,76,29.71,29.58,29.51,10,8,2,15,6,20,0.00,5,Rain,292
2012-10-9,41,36,32,36,31,25,100,83,53,29.99,29.83,29.61,10,9,2,23,13,29,0.00,6,Rain-Snow,313
2012-10-10,41,34,28,36,32,27,100,88,70,29.99,29.95,29.90,10,10,7,10,6,,0.00,4,Rain,256
2012-10-11,41,32,24,36,26,21,100,72,49,30.37,30.21,29.97,10,10,10,17,10,25,0.00,2,,317
2012-10-12,50,36,21,27,23,19,93,70,32,30.36,30.12,29.77,10,10,9,29,11,40,0.00,2,,170
2012-10-13,55,44,32,36,29,23,87,63,41,29.88,29.72,29.64,10,10,7,17,12,23,0.00,0,,323
2012-10-14,53,42,32,41,36,32,100,85,54,29.97,29.92,29.88,10,10,7,13,9,,0.00,3,Rain,339
2012-10-15,62,46,30,41,37,30,100,78,45,29.88,29.70,29.51,10,9,5,23,10,30,0.00,1,Rain,164
2012-10-16,66,52,37,48,44,37,100,75,49,29.52,29.42,29.22,10,10,5,10,5,,0.00,0,,190
2012-10-17,53,50,48,52,48,45,100,95,72,29.22,29.12,29.06,10,6,2,23,10,29,0.00,5,Rain,265
2012-10-18,50,46,41,50,45,39,100,98,93,29.70,29.39,29.08,10,5,2,38,20,53,0.00,8,Rain,352
2012-10-19,41,40,39,41,39,37,100,95,93,29.79,29.75,29.71,10,9,2,29,19,39,0.00,8,Rain,346
2012-10-20,51,44,37,45,41,37,100,93,71,29.72,29.66,29.59,10,9,3,23,9,29,0.00,5,,170
2012-10-21,50,42,33,48,41,32,100,88,76,30.08,29.86,29.64,10,9,2,18,9,22,0.00,3,Rain,336
2012-10-22,42,37,32,39,35,30,100,90,81,30.15,30.08,29.93,10,10,7,14,7,17,0.00,4,Rain,13
2012-10-23,48,44,41,48,46,39,100,99,93,29.92,29.73,29.60,10,5,1,20,9,22,0.00,8,Rain-Thunderstorm,130
2012-10-24,46,39,32,45,35,28,93,84,75,30.02,29.92,29.75,10,10,10,17,10,17,0.00,7,,288
2012-10-25,39,34,30,28,27,25,93,74,61,30.08,29.98,29.92,10,10,10,28,12,37,0.00,4,,286
2012-10-26,35,32,28,27,21,16,80,65,44,30.26,30.21,30.09,10,10,10,25,18,32,0.00,6,,288
2012-10-27,32,26,21,21,17,12,93,67,44,30.33,30.29,30.25,10,10,8,12,7,16,0.00,6,,296
2012-10-28,33,24,15,25,19,14,93,80,55,30.34,30.30,30.25,10,10,10,10,6,,0.00,3,,98
2012-10-29,48,38,28,36,30,25,100,80,54,30.25,30.18,30.14,10,9,5,14,10,18,0.00,3,Rain-Snow,113
2012-10-30,44,38,32,32,29,27,87,74,53,30.18,30.13,30.06,10,10,8,20,11,25,0.00,4,,144
2012-10-31,46,40,32,39,33,27,93,81,66,30.11,30.02,29.95,10,9,5,23,11,30,0.00,6,Rain,164